Time;durP1;ratioP1;P1;durP2;ratioP2;P2;SDS_P1;SDS_P2;PMS_P1;PMS_P2;Temp;Humidity;BMP_temperature;BMP_pressure;BME280_temperature;BME280_humidity;BME280_pressure;Samples;Min_cycle;Max_cycle;Signal;HPM_P1;HPM_P2
2023/04/14 00:01:24;;;;;;;5.30;2.00;;;;;;;;;;5067639;28;20036;-80
2023/04/14 00:03:51;;;;;;;6.00;1.73;;;;;;;;;;5063516;28;20052;-80
2023/04/14 00:06:17;;;;;;;8.83;2.07;;;;;;;;;;5061297;28;20028;-79
2023/04/14 00:08:43;;;;;;;9.60;2.00;;;;;;;;;;5066571;28;20032;-80
2023/04/14 00:11:10;;;;;;;10.57;2.23;;;;;;;;;;5061524;28;20037;-81
2023/04/14 00:13:36;;;;;;;10.00;2.10;;;;;;;;;;5065829;28;20441;-79
2023/04/14 00:16:02;;;;;;;9.10;1.80;;;;;;;;;;5060599;28;20025;-80
2023/04/14 00:18:28;;;;;;;3.57;1.47;;;;;;;;;;5061364;28;20043;-80
2023/04/14 00:20:54;;;;;;;8.03;1.87;;;;;;;;;;5058341;28;20036;-84
2023/04/14 00:23:20;;;;;;;9.77;1.80;;;;;;;;;;5060629;28;20072;-80
2023/04/14 00:25:47;;;;;;;10.90;1.90;;;;;;;;;;5063545;28;20384;-82
2023/04/14 00:28:13;;;;;;;9.03;2.30;;;;;;;;;;5062619;28;20029;-80
2023/04/14 00:30:39;;;;;;;8.80;1.73;;;;;;;;;;5061620;28;20094;-80
2023/04/14 00:33:05;;;;;;;5.57;2.03;;;;;;;;;;5064293;28;20052;-80
2023/04/14 00:35:31;;;;;;;9.43;2.37;;;;;;;;;;5060283;28;20115;-80
2023/04/14 00:37:57;;;;;;;5.83;2.13;;;;;;;;;;5065600;28;20055;-80
2023/04/14 00:40:23;;;;;;;8.03;1.90;;;;;;;;;;5058510;28;20094;-80
2023/04/14 00:42:50;;;;;;;7.60;1.90;;;;;;;;;;5060778;28;20021;-80
2023/04/14 00:45:16;;;;;;;6.73;1.80;;;;;;;;;;5062089;28;20039;-80
2023/04/14 00:47:46;;;;;;;6.47;1.90;;;;;;;;;;5059165;28;20055;-79
2023/04/14 00:50:13;;;;;;;12.00;1.57;;;;;;;;;;5061091;28;20313;-79
2023/04/14 00:52:41;;;;;;;8.37;2.23;;;;;;;;;;5061563;28;20029;-80
2023/04/14 00:55:07;;;;;;;3.83;1.60;;;;;;;;;;5059478;28;20036;-81
2023/04/14 00:57:34;;;;;;;7.57;1.87;;;;;;;;;;5057684;28;20111;-79
2023/04/14 01:00:00;;;;;;;7.03;1.50;;;;;;;;;;5057116;28;20041;-80
2023/04/14 01:02:26;;;;;;;11.03;3.80;;;;;;;;;;5056842;28;20058;-80
2023/04/14 01:04:52;;;;;;;17.20;8.10;;;;;;;;;;5062207;28;20029;-80
2023/04/14 01:07:20;;;;;;;32.37;13.47;;;;;;;;;;5055004;28;20037;-80
2023/04/14 01:09:46;;;;;;;13.23;5.30;;;;;;;;;;5058594;28;20069;-80
2023/04/14 01:12:38;;;;;;;8.53;2.60;;;;;;;;;;5055251;28;20048;-81
2023/04/14 01:15:11;;;;;;;8.63;2.53;;;;;;;;;;5012407;28;20123;-79
2023/04/14 01:17:56;;;;;;;5.33;1.87;;;;;;;;;;5057975;28;20017;-81
2023/04/14 01:20:29;;;;;;;6.50;3.20;;;;;;;;;;5059756;28;20575;-79
2023/04/14 01:22:55;;;;;;;;;;;;;;;;;;5057241;28;20076;-80
2023/04/14 01:25:33;;;;;;;13.33;2.60;;;;;;;;;;5058684;28;19935;-80
2023/04/14 01:28:08;;;;;;;5.60;2.53;;;;;;;;;;5060289;28;20028;-80
2023/04/14 01:30:53;;;;;;;11.20;2.33;;;;;;;;;;5058512;28;20039;-81
2023/04/14 01:33:20;;;;;;;3.90;2.10;;;;;;;;;;5060962;28;20040;-80
2023/04/14 01:35:51;;;;;;;12.90;2.20;;;;;;;;;;5051186;28;20043;-80
2023/04/14 01:38:21;;;;;;;7.33;1.70;;;;;;;;;;5058741;28;20033;-80
2023/04/14 01:40:50;;;;;;;5.03;2.37;;;;;;;;;;5056093;28;20050;-80
2023/04/14 01:43:17;;;;;;;5.97;1.77;;;;;;;;;;5054369;28;20108;-80
2023/04/14 01:45:48;;;;;;;6.60;2.30;;;;;;;;;;5060596;28;20045;-79
2023/04/14 01:48:15;;;;;;;5.47;2.43;;;;;;;;;;5057051;28;20029;-80
2023/04/14 01:50:42;;;;;;;10.13;2.47;;;;;;;;;;5056757;28;20032;-80
2023/04/14 01:53:10;;;;;;;7.90;2.37;;;;;;;;;;5057521;28;20113;-80
2023/04/14 01:55:37;;;;;;;10.50;2.27;;;;;;;;;;5053631;28;20036;-80
2023/04/14 01:58:03;;;;;;;5.43;1.87;;;;;;;;;;5057064;28;20032;-80
2023/04/14 02:00:30;;;;;;;8.93;2.53;;;;;;;;;;5063079;28;20040;-79
2023/04/14 02:02:56;;;;;;;12.60;2.40;;;;;;;;;;5057806;28;20052;-80
2023/04/14 02:05:22;;;;;;;5.60;2.53;;;;;;;;;;5056594;28;20029;-80
2023/04/14 02:07:51;;;;;;;9.30;2.87;;;;;;;;;;5060425;28;20067;-81
2023/04/14 02:10:19;;;;;;;8.10;2.80;;;;;;;;;;5056801;28;20028;-81
2023/04/14 02:12:45;;;;;;;7.53;2.77;;;;;;;;;;5062469;28;20052;-80
2023/04/14 02:15:14;;;;;;;6.73;2.67;;;;;;;;;;5055995;28;20445;-81
2023/04/14 02:17:41;;;;;;;9.23;3.33;;;;;;;;;;5056693;28;20470;-80
2023/04/14 02:20:08;;;;;;;8.83;3.30;;;;;;;;;;5053916;28;20029;-79
2023/04/14 02:22:34;;;;;;;6.33;2.57;;;;;;;;;;5059470;28;20042;-80
2023/04/14 02:25:00;;;;;;;15.17;2.87;;;;;;;;;;5067890;28;20036;-80
2023/04/14 02:27:45;;;;;;;7.20;3.00;;;;;;;;;;5056664;28;20111;-80
2023/04/14 02:30:13;;;;;;;8.13;2.73;;;;;;;;;;5046683;28;20029;-80
2023/04/14 02:32:42;;;;;;;6.83;3.17;;;;;;;;;;5052302;28;20047;-80
2023/04/14 02:35:15;;;;;;;6.70;2.63;;;;;;;;;;5055498;28;20064;-79
2023/04/14 02:37:44;;;;;;;10.57;3.63;;;;;;;;;;5059508;28;20028;-80
2023/04/14 02:40:15;;;;;;;8.33;4.20;;;;;;;;;;5052954;28;20025;-80
2023/04/14 02:42:43;;;;;;;9.13;3.50;;;;;;;;;;5053228;28;20283;-81
2023/04/14 02:45:13;;;;;;;8.40;3.23;;;;;;;;;;5052264;28;20026;-78
2023/04/14 02:47:41;;;;;;;7.10;3.13;;;;;;;;;;5058377;28;20404;-81
2023/04/14 02:50:11;;;;;;;9.63;4.10;;;;;;;;;;5054467;28;20032;-80
2023/04/14 02:52:38;;;;;;;12.27;3.97;;;;;;;;;;5055325;28;20257;-80
2023/04/14 02:55:05;;;;;;;8.77;3.50;;;;;;;;;;5051897;28;20264;-80
2023/04/14 02:57:32;;;;;;;8.13;3.13;;;;;;;;;;5062671;28;20043;-80
2023/04/14 02:59:58;;;;;;;10.83;3.40;;;;;;;;;;5059318;28;20065;-80
2023/04/14 03:02:25;;;;;;;11.17;4.20;;;;;;;;;;5059600;28;20120;-80
2023/04/14 03:04:52;;;;;;;13.47;4.10;;;;;;;;;;5062329;28;20024;-82
2023/04/14 03:07:19;;;;;;;10.87;3.43;;;;;;;;;;5061364;28;20033;-81
2023/04/14 03:09:48;;;;;;;12.27;3.97;;;;;;;;;;5058375;28;20439;-79
2023/04/14 03:12:15;;;;;;;10.50;3.23;;;;;;;;;;5061036;28;20032;-81
2023/04/14 03:14:42;;;;;;;10.33;3.77;;;;;;;;;;5060526;28;20020;-80
2023/04/14 03:17:10;;;;;;;11.53;3.93;;;;;;;;;;5058594;28;20020;-81
2023/04/14 03:19:38;;;;;;;13.23;3.70;;;;;;;;;;5057278;28;20032;-81
2023/04/14 03:22:05;;;;;;;11.23;4.13;;;;;;;;;;5054538;28;20039;-81
2023/04/14 03:24:33;;;;;;;9.70;4.20;;;;;;;;;;5058936;28;20108;-80
2023/04/14 03:27:05;;;;;;;11.40;4.00;;;;;;;;;;5057404;28;20273;-79
2023/04/14 03:29:34;;;;;;;10.73;4.60;;;;;;;;;;5055866;28;20040;-79
2023/04/14 03:32:01;;;;;;;9.07;4.27;;;;;;;;;;5059257;28;21481;-80
2023/04/14 03:34:29;;;;;;;12.97;5.03;;;;;;;;;;5058880;28;20020;-80
2023/04/14 03:36:55;;;;;;;10.93;4.30;;;;;;;;;;5060571;28;20040;-79
2023/04/14 03:39:26;;;;;;;11.87;4.43;;;;;;;;;;5058502;28;20032;-80
2023/04/14 03:41:53;;;;;;;12.27;4.40;;;;;;;;;;5059080;28;20508;-80
2023/04/14 03:44:19;;;;;;;10.83;3.93;;;;;;;;;;5064151;28;20063;-80
2023/04/14 03:46:48;;;;;;;11.03;4.23;;;;;;;;;;5061179;28;20038;-80
2023/04/14 03:49:15;;;;;;;9.70;3.80;;;;;;;;;;5058362;28;20362;-80
2023/04/14 03:51:41;;;;;;;11.43;4.60;;;;;;;;;;5067133;28;20033;-80
2023/04/14 03:54:09;;;;;;;12.93;4.53;;;;;;;;;;5056047;28;20454;-80
2023/04/14 03:56:37;;;;;;;10.10;4.33;;;;;;;;;;5055037;28;20151;-80
2023/04/14 03:59:04;;;;;;;10.50;4.63;;;;;;;;;;5061017;28;20377;-80
2023/04/14 04:01:32;;;;;;;11.07;5.00;;;;;;;;;;5057176;28;20548;-81
2023/04/14 04:04:00;;;;;;;12.17;4.90;;;;;;;;;;5062454;28;20286;-80
2023/04/14 04:06:27;;;;;;;12.20;5.47;;;;;;;;;;5059827;28;20041;-80
2023/04/14 04:08:55;;;;;;;12.23;4.70;;;;;;;;;;5060540;28;20327;-81
2023/04/14 04:11:22;;;;;;;10.43;4.77;;;;;;;;;;5054898;28;20068;-79
2023/04/14 04:13:48;;;;;;;9.67;4.73;;;;;;;;;;5060500;28;20275;-81
2023/04/14 04:16:15;;;;;;;11.83;4.97;;;;;;;;;;5059445;28;20299;-80
2023/04/14 04:18:45;;;;;;;17.23;6.43;;;;;;;;;;5057695;28;20283;-81
2023/04/14 04:21:12;;;;;;;12.93;4.67;;;;;;;;;;5062563;28;20322;-81
2023/04/14 04:23:41;;;;;;;11.40;4.17;;;;;;;;;;5057194;28;20291;-80
2023/04/14 04:26:07;;;;;;;10.30;4.50;;;;;;;;;;5056634;28;20747;-79
2023/04/14 04:28:33;;;;;;;11.83;4.50;;;;;;;;;;5059750;28;20286;-81
2023/04/14 04:31:00;;;;;;;13.27;4.43;;;;;;;;;;5057602;28;20033;-80
2023/04/14 04:33:28;;;;;;;18.80;5.77;;;;;;;;;;5054239;28;20279;-80
2023/04/14 04:35:55;;;;;;;8.63;4.70;;;;;;;;;;5057955;28;20268;-80
2023/04/14 04:38:23;;;;;;;6.97;3.80;;;;;;;;;;5059966;28;20407;-81
2023/04/14 04:40:49;;;;;;;10.63;4.50;;;;;;;;;;5057360;28;20279;-79
2023/04/14 04:43:18;;;;;;;10.83;4.33;;;;;;;;;;5061850;28;20744;-80
2023/04/14 04:46:05;;;;;;;12.40;4.03;;;;;;;;;;5055842;28;20307;-80
2023/04/14 04:48:31;;;;;;;14.07;4.70;;;;;;;;;;5010698;28;20291;-81
2023/04/14 04:50:57;;;;;;;9.53;4.67;;;;;;;;;;5060538;28;20294;-82
2023/04/14 04:53:23;;;;;;;7.03;3.70;;;;;;;;;;5061037;28;20271;-79
2023/04/14 04:55:49;;;;;;;8.23;3.90;;;;;;;;;;5061551;28;20306;-80
2023/04/14 04:58:15;;;;;;;14.50;4.73;;;;;;;;;;5061903;28;20337;-80
2023/04/14 05:00:42;;;;;;;14.80;5.23;;;;;;;;;;5060196;28;20283;-79
2023/04/14 05:03:08;;;;;;;11.00;4.63;;;;;;;;;;5063747;28;20310;-81
2023/04/14 05:05:35;;;;;;;13.07;5.43;;;;;;;;;;5062576;28;20321;-81
2023/04/14 05:08:04;;;;;;;17.47;5.07;;;;;;;;;;5062783;28;20952;-79
2023/04/14 05:10:30;;;;;;;16.87;5.20;;;;;;;;;;5057944;28;20310;-79
2023/04/14 05:12:56;;;;;;;9.57;4.27;;;;;;;;;;5061182;28;20291;-81
2023/04/14 05:15:22;;;;;;;8.87;4.10;;;;;;;;;;5062038;28;20349;-81
2023/04/14 05:17:48;;;;;;;14.03;4.43;;;;;;;;;;5060115;28;20322;-79
2023/04/14 05:20:14;;;;;;;14.80;4.97;;;;;;;;;;5060271;28;20278;-80
2023/04/14 05:22:40;;;;;;;11.63;4.43;;;;;;;;;;5061033;28;20291;-80
2023/04/14 05:25:07;;;;;;;10.97;4.93;;;;;;;;;;5062368;28;20280;-79
2023/04/14 05:27:33;;;;;;;13.50;4.70;;;;;;;;;;5060934;28;20295;-80
2023/04/14 05:29:59;;;;;;;11.07;5.47;;;;;;;;;;5064163;28;20274;-80
2023/04/14 05:32:27;;;;;;;15.73;5.80;;;;;;;;;;5059625;28;20280;-81
2023/04/14 05:34:53;;;;;;;17.23;5.97;;;;;;;;;;5060848;28;20294;-81
2023/04/14 05:37:19;;;;;;;18.73;6.63;;;;;;;;;;5058658;28;20276;-81
2023/04/14 05:39:45;;;;;;;21.37;6.40;;;;;;;;;;5061187;28;20272;-81
2023/04/14 05:42:11;;;;;;;14.63;5.40;;;;;;;;;;5063743;28;20283;-81
2023/04/14 05:44:39;;;;;;;12.37;6.60;;;;;;;;;;5059203;28;20278;-81
2023/04/14 05:47:05;;;;;;;18.50;6.43;;;;;;;;;;5057632;28;20333;-80
2023/04/14 05:49:32;;;;;;;16.80;7.33;;;;;;;;;;5062245;28;20310;-82
2023/04/14 05:51:58;;;;;;;14.10;7.20;;;;;;;;;;5064167;28;20298;-80
2023/04/14 05:54:24;;;;;;;16.63;8.40;;;;;;;;;;5064151;28;20564;-81
2023/04/14 05:56:52;;;;;;;19.03;8.40;;;;;;;;;;5060339;28;20110;-81
2023/04/14 05:59:19;;;;;;;15.47;8.23;;;;;;;;;;5067420;28;20033;-80
2023/04/14 06:01:45;;;;;;;17.47;7.87;;;;;;;;;;5066603;28;20027;-81
2023/04/14 06:04:11;;;;;;;19.53;6.53;;;;;;;;;;5062911;28;20040;-80
2023/04/14 06:06:40;;;;;;;21.17;5.43;;;;;;;;;;5067912;28;20036;-78
2023/04/14 06:09:08;;;;;;;13.97;6.13;;;;;;;;;;5063585;28;20067;-82
2023/04/14 06:11:36;;;;;;;21.23;7.13;;;;;;;;;;5065665;28;20057;-80
2023/04/14 06:14:04;;;;;;;10.93;4.77;;;;;;;;;;5065010;28;20028;-79
2023/04/14 06:16:30;;;;;;;21.00;6.27;;;;;;;;;;5063474;28;20022;-81
2023/04/14 06:18:57;;;;;;;15.77;5.73;;;;;;;;;;5063420;28;20025;-82
2023/04/14 06:21:23;;;;;;;12.23;5.87;;;;;;;;;;5064877;28;20093;-79
2023/04/14 06:23:49;;;;;;;15.00;5.60;;;;;;;;;;5063889;28;20093;-81
2023/04/14 06:26:15;;;;;;;14.30;5.37;;;;;;;;;;5065063;28;20081;-81
2023/04/14 06:28:41;;;;;;;14.80;5.70;;;;;;;;;;5065811;28;20016;-83
2023/04/14 06:31:07;;;;;;;15.73;5.73;;;;;;;;;;5064988;28;20131;-82
2023/04/14 06:33:33;;;;;;;20.93;8.60;;;;;;;;;;5071199;28;20097;-79
2023/04/14 06:36:02;;;;;;;17.67;8.97;;;;;;;;;;5073647;28;20030;-78
2023/04/14 06:38:28;;;;;;;15.67;6.03;;;;;;;;;;5071518;28;20025;-81
2023/04/14 06:40:54;;;;;;;22.83;9.27;;;;;;;;;;5072063;28;20024;-79
2023/04/14 06:43:20;;;;;;;13.47;4.80;;;;;;;;;;5070288;28;20136;-79
2023/04/14 06:45:46;;;;;;;9.70;4.80;;;;;;;;;;5070548;28;20092;-80
2023/04/14 06:48:13;;;;;;;16.57;4.87;;;;;;;;;;5074310;28;20036;-81
2023/04/14 06:50:41;;;;;;;10.20;4.07;;;;;;;;;;5072371;28;20029;-81
2023/04/14 06:53:08;;;;;;;12.77;4.97;;;;;;;;;;5073312;28;20017;-79
2023/04/14 06:55:40;;;;;;;16.50;4.37;;;;;;;;;;5070499;28;20121;-79
2023/04/14 06:58:06;;;;;;;11.10;5.93;;;;;;;;;;5071338;28;20026;-80
2023/04/14 07:00:34;;;;;;;13.93;4.97;;;;;;;;;;5088210;28;20036;-81
2023/04/14 07:03:00;;;;;;;12.67;6.63;;;;;;;;;;5076458;28;20053;-80
2023/04/14 07:05:26;;;;;;;10.03;4.90;;;;;;;;;;5077107;28;20039;-81
2023/04/14 07:07:55;;;;;;;16.23;6.17;;;;;;;;;;5069770;28;20041;-80
2023/04/14 07:10:21;;;;;;;17.83;5.40;;;;;;;;;;5071846;28;20029;-79
2023/04/14 07:12:47;;;;;;;13.37;5.27;;;;;;;;;;5073892;28;20033;-78
2023/04/14 07:15:13;;;;;;;15.23;4.80;;;;;;;;;;5072228;28;20078;-80
2023/04/14 07:17:39;;;;;;;20.20;7.10;;;;;;;;;;5075309;28;20021;-78
2023/04/14 07:20:08;;;;;;;11.53;5.80;;;;;;;;;;5073523;28;20049;-79
2023/04/14 07:22:34;;;;;;;15.93;5.83;;;;;;;;;;5071328;28;20043;-81
2023/04/14 07:25:00;;;;;;;14.47;5.77;;;;;;;;;;5071957;28;20060;-80
2023/04/14 07:27:27;;;;;;;16.20;5.00;;;;;;;;;;5072082;28;20040;-80
2023/04/14 07:29:53;;;;;;;14.93;5.60;;;;;;;;;;5073427;28;20028;-80
2023/04/14 07:32:20;;;;;;;13.47;5.77;;;;;;;;;;5072060;28;20052;-80
2023/04/14 07:34:46;;;;;;;14.47;5.43;;;;;;;;;;5073461;28;20017;-80
2023/04/14 07:37:20;;;;;;;11.30;5.33;;;;;;;;;;5072628;28;20044;-78
2023/04/14 07:39:46;;;;;;;10.27;5.07;;;;;;;;;;5077616;28;20098;-81
2023/04/14 07:42:20;;;;;;;14.10;4.77;;;;;;;;;;5072526;28;20037;-80
2023/04/14 07:44:46;;;;;;;11.97;4.30;;;;;;;;;;5072252;28;20072;-79
2023/04/14 07:47:12;;;;;;;13.40;5.13;;;;;;;;;;5073726;28;20036;-79
2023/04/14 07:49:38;;;;;;;12.43;4.13;;;;;;;;;;5070452;28;20040;-79
2023/04/14 07:52:06;;;;;;;10.90;4.50;;;;;;;;;;5087749;28;20044;-79
2023/04/14 07:54:32;;;;;;;10.00;4.17;;;;;;;;;;5071115;28;20024;-82
2023/04/14 07:56:58;;;;;;;15.37;4.77;;;;;;;;;;5075254;28;20040;-81
2023/04/14 07:59:32;;;;;;;10.83;4.10;;;;;;;;;;5070701;28;20037;-79
2023/04/14 08:02:00;;;;;;;11.97;4.03;;;;;;;;;;5074143;28;20013;-80
2023/04/14 08:04:33;;;;;;;13.63;4.20;;;;;;;;;;5076045;28;20051;-81
2023/04/14 08:07:07;;;;;;;11.27;4.03;;;;;;;;;;5074108;28;20032;-81
2023/04/14 08:09:35;;;;;;;12.43;4.13;;;;;;;;;;5075700;28;20055;-80
2023/04/14 08:12:04;;;;;;;12.13;3.50;;;;;;;;;;5073638;28;20032;-80
2023/04/14 08:14:30;;;;;;;10.27;4.23;;;;;;;;;;5073555;28;20025;-81
2023/04/14 08:16:58;;;;;;;11.93;3.77;;;;;;;;;;5076810;28;20040;-80
2023/04/14 08:19:24;;;;;;;9.07;3.67;;;;;;;;;;5073424;28;20059;-80
2023/04/14 08:21:51;;;;;;;7.57;3.13;;;;;;;;;;5074859;28;20093;-80
2023/04/14 08:24:19;;;;;;;9.00;3.13;;;;;;;;;;5075607;28;20036;-79
2023/04/14 08:26:47;;;;;;;10.53;3.63;;;;;;;;;;5074959;28;20331;-79
2023/04/14 08:29:13;;;;;;;13.70;4.20;;;;;;;;;;5076863;28;20029;-80
2023/04/14 08:31:39;;;;;;;12.20;4.00;;;;;;;;;;5077566;28;20036;-81
2023/04/14 08:34:05;;;;;;;8.83;3.37;;;;;;;;;;5077864;28;20017;-81
2023/04/14 08:36:36;;;;;;;14.27;3.57;;;;;;;;;;5073449;28;20024;-79
2023/04/14 08:39:03;;;;;;;11.70;3.57;;;;;;;;;;5072764;28;20081;-78
2023/04/14 08:41:32;;;;;;;11.40;3.00;;;;;;;;;;5073484;28;20013;-79
2023/04/14 08:43:58;;;;;;;15.23;2.83;;;;;;;;;;5073059;28;20044;-81
2023/04/14 08:46:33;;;;;;;13.27;3.20;;;;;;;;;;5079004;28;20041;-79
2023/04/14 08:49:04;;;;;;;10.07;3.30;;;;;;;;;;5075476;28;20012;-80
2023/04/14 08:51:41;;;;;;;8.20;3.10;;;;;;;;;;5078839;28;20053;-80
2023/04/14 08:54:08;;;;;;;10.37;3.40;;;;;;;;;;5077960;28;20020;-78
2023/04/14 08:56:37;;;;;;;11.93;2.93;;;;;;;;;;5075331;28;20020;-81
2023/04/14 08:59:08;;;;;;;9.80;3.20;;;;;;;;;;5075450;28;20038;-79
2023/04/14 09:01:41;;;;;;;7.40;2.90;;;;;;;;;;5075935;28;20053;-80
2023/04/14 09:04:07;;;;;;;8.03;2.60;;;;;;;;;;5077753;28;20039;-79
2023/04/14 09:06:36;;;;;;;7.40;2.30;;;;;;;;;;5076520;28;20033;-78
2023/04/14 09:09:06;;;;;;;10.13;3.00;;;;;;;;;;5073890;28;20020;-79
2023/04/14 09:11:32;;;;;;;12.57;2.50;;;;;;;;;;5094774;28;20036;-81
2023/04/14 09:13:59;;;;;;;5.47;2.20;;;;;;;;;;5076297;28;20324;-80
2023/04/14 09:16:26;;;;;;;10.17;2.27;;;;;;;;;;5075597;28;20040;-79
2023/04/14 09:18:53;;;;;;;13.07;2.40;;;;;;;;;;5076369;28;20016;-79
2023/04/14 09:21:19;;;;;;;8.47;2.63;;;;;;;;;;5073958;28;20047;-79
2023/04/14 09:23:46;;;;;;;10.97;2.60;;;;;;;;;;5072660;28;20062;-80
2023/04/14 09:26:15;;;;;;;10.63;3.43;;;;;;;;;;5072568;28;20033;-79
2023/04/14 09:28:46;;;;;;;10.47;2.33;;;;;;;;;;5078229;28;20036;-79
2023/04/14 09:31:12;;;;;;;7.70;1.97;;;;;;;;;;5077906;28;20071;-79
2023/04/14 09:33:39;;;;;;;10.67;1.83;;;;;;;;;;5074937;28;20022;-80
2023/04/14 09:36:08;;;;;;;8.47;1.77;;;;;;;;;;5073600;28;20036;-80
2023/04/14 09:38:36;;;;;;;8.23;2.10;;;;;;;;;;5073496;28;20097;-80
2023/04/14 09:41:03;;;;;;;6.40;1.30;;;;;;;;;;5072034;28;20017;-79
2023/04/14 09:43:29;;;;;;;8.83;1.97;;;;;;;;;;5078913;28;20024;-81
2023/04/14 09:45:56;;;;;;;7.00;2.33;;;;;;;;;;5074900;28;20042;-80
2023/04/14 09:48:23;;;;;;;7.63;1.87;;;;;;;;;;5074715;28;20009;-79
2023/04/14 09:51:02;;;;;;;12.60;2.43;;;;;;;;;;5077641;28;20051;-80
2023/04/14 09:53:40;;;;;;;10.13;1.87;;;;;;;;;;5077554;28;20039;-81
2023/04/14 09:56:07;;;;;;;9.47;2.03;;;;;;;;;;5075596;28;20063;-80
2023/04/14 09:58:34;;;;;;;7.97;2.37;;;;;;;;;;5073011;28;20049;-79
2023/04/14 10:01:04;;;;;;;10.03;1.90;;;;;;;;;;5074299;28;20045;-80
2023/04/14 10:03:37;;;;;;;7.77;1.77;;;;;;;;;;5070446;28;20030;-79
2023/04/14 10:06:03;;;;;;;;;;;;;;;;;;5073662;28;20017;-80
2023/04/14 10:08:47;;;;;;;10.30;1.80;;;;;;;;;;5085021;28;19900;-79
2023/04/14 10:11:24;;;;;;;3.33;1.47;;;;;;;;;;5072850;28;20039;-80
2023/04/14 10:13:51;;;;;;;7.17;2.03;;;;;;;;;;5072042;28;20041;-79
2023/04/14 10:16:17;;;;;;;8.37;2.00;;;;;;;;;;5077719;28;20033;-80
2023/04/14 10:18:43;;;;;;;5.67;1.60;;;;;;;;;;5072773;28;20044;-80
2023/04/14 10:21:10;;;;;;;5.53;2.43;;;;;;;;;;5078456;28;20009;-78
2023/04/14 10:23:40;;;;;;;12.30;3.33;;;;;;;;;;5077076;28;20060;-79
2023/04/14 10:26:07;;;;;;;12.23;2.47;;;;;;;;;;5076196;28;20075;-79
2023/04/14 10:28:37;;;;;;;11.77;2.47;;;;;;;;;;5074472;28;20068;-79
2023/04/14 10:31:05;;;;;;;10.33;1.97;;;;;;;;;;5075618;28;20037;-80
2023/04/14 10:33:34;;;;;;;6.70;2.17;;;;;;;;;;5075702;28;20021;-80
2023/04/14 10:36:00;;;;;;;8.70;2.50;;;;;;;;;;5077306;28;20033;-79
2023/04/14 10:38:38;;;;;;;8.30;2.03;;;;;;;;;;5074860;28;20056;-80
2023/04/14 10:41:05;;;;;;;9.17;1.90;;;;;;;;;;5079444;28;20024;-79
2023/04/14 10:43:35;;;;;;;6.57;1.97;;;;;;;;;;5074403;28;20075;-79
2023/04/14 10:46:02;;;;;;;7.23;1.83;;;;;;;;;;5072189;28;20081;-78
2023/04/14 10:48:35;;;;;;;9.60;2.33;;;;;;;;;;5077775;28;20056;-79
2023/04/14 10:51:03;;;;;;;6.55;2.10;;;;;;;;;;5077844;28;20052;-80
2023/04/14 10:53:36;;;;;;;8.40;1.83;;;;;;;;;;5079110;28;20054;-79
2023/04/14 10:56:05;;;;;;;7.33;2.00;;;;;;;;;;5075583;28;20088;-79
2023/04/14 10:58:33;;;;;;;4.73;1.07;;;;;;;;;;5072961;28;20045;-78
2023/04/14 11:00:59;;;;;;;4.20;1.10;;;;;;;;;;5074344;28;20096;-80
2023/04/14 11:03:33;;;;;;;7.53;1.60;;;;;;;;;;5074943;28;20017;-79
2023/04/14 11:05:59;;;;;;;5.80;1.37;;;;;;;;;;5078467;28;20033;-79
2023/04/14 11:08:26;;;;;;;6.53;1.40;;;;;;;;;;5071582;28;20063;-81
2023/04/14 11:11:02;;;;;;;8.93;1.80;;;;;;;;;;5072178;28;20029;-80
2023/04/14 11:13:29;;;;;;;6.03;1.17;;;;;;;;;;5072914;28;20032;-79
2023/04/14 11:16:02;;;;;;;9.73;1.50;;;;;;;;;;5071768;28;20029;-79
2023/04/14 11:18:29;;;;;;;6.43;1.90;;;;;;;;;;5079192;28;20013;-82
2023/04/14 11:21:12;;;;;;;4.63;1.40;;;;;;;;;;5076878;28;20032;-80
2023/04/14 11:23:42;;;;;;;6.33;1.30;;;;;;;;;;5094198;28;20045;-77
2023/04/14 11:26:09;;;;;;;4.17;1.20;;;;;;;;;;5078587;28;20030;-79
2023/04/14 11:28:36;;;;;;;3.97;1.27;;;;;;;;;;5075890;28;20037;-78
2023/04/14 11:31:03;;;;;;;2.90;1.13;;;;;;;;;;5079185;28;20072;-79
2023/04/14 11:33:30;;;;;;;6.47;1.50;;;;;;;;;;5077238;28;20051;-79
2023/04/14 11:35:57;;;;;;;6.67;1.27;;;;;;;;;;5075497;28;20040;-79
2023/04/14 11:38:24;;;;;;;4.27;0.90;;;;;;;;;;5076026;28;20037;-79
2023/04/14 11:40:52;;;;;;;4.47;1.13;;;;;;;;;;5078776;28;20063;-79
2023/04/14 11:43:19;;;;;;;4.60;1.30;;;;;;;;;;5074959;28;20029;-79
2023/04/14 11:45:46;;;;;;;3.33;1.23;;;;;;;;;;5077583;28;20025;-80
2023/04/14 11:48:13;;;;;;;3.60;0.90;;;;;;;;;;5080306;28;20028;-80
2023/04/14 11:50:40;;;;;;;4.97;1.23;;;;;;;;;;5076559;28;20012;-80
2023/04/14 11:53:07;;;;;;;6.20;2.00;;;;;;;;;;5076392;28;20032;-80
2023/04/14 11:55:33;;;;;;;3.07;0.97;;;;;;;;;;5073550;28;20020;-80
2023/04/14 11:58:00;;;;;;;6.40;1.63;;;;;;;;;;5074837;28;20047;-79
2023/04/14 12:00:29;;;;;;;6.10;1.50;;;;;;;;;;5075608;28;20021;-79
2023/04/14 12:02:56;;;;;;;3.60;0.90;;;;;;;;;;5072441;28;20052;-79
2023/04/14 12:05:29;;;;;;;6.00;1.40;;;;;;;;;;5075775;28;20083;-80
2023/04/14 12:08:00;;;;;;;4.30;1.20;;;;;;;;;;5074677;28;20032;-80
2023/04/14 12:10:26;;;;;;;3.87;1.10;;;;;;;;;;5072424;28;20043;-80
2023/04/14 12:13:00;;;;;;;3.83;1.47;;;;;;;;;;5072632;28;20041;-80
2023/04/14 12:15:26;;;;;;;3.60;1.07;;;;;;;;;;5070207;28;20036;-80
2023/04/14 12:17:53;;;;;;;3.47;1.23;;;;;;;;;;5069576;28;20024;-79
2023/04/14 12:20:19;;;;;;;2.90;0.97;;;;;;;;;;5073234;28;20021;-80
2023/04/14 12:22:48;;;;;;;5.20;1.47;;;;;;;;;;5076178;28;20075;-79
2023/04/14 12:25:14;;;;;;;3.83;1.00;;;;;;;;;;5073610;28;20024;-80
2023/04/14 12:27:41;;;;;;;7.78;1.45;;;;;;;;;;5074268;28;20033;-79
2023/04/14 12:30:08;;;;;;;3.40;0.90;;;;;;;;;;5071027;28;20031;-80
2023/04/14 12:32:41;;;;;;;3.60;0.90;;;;;;;;;;5073625;28;20033;-80
2023/04/14 12:35:07;;;;;;;4.90;1.00;;;;;;;;;;5075004;28;20021;-79
2023/04/14 12:37:34;;;;;;;6.25;1.92;;;;;;;;;;5069577;28;20033;-79
2023/04/14 12:40:05;;;;;;;5.47;1.13;;;;;;;;;;5073331;28;20049;-80
2023/04/14 12:42:48;;;;;;;5.65;1.20;;;;;;;;;;5075999;28;20024;-80
2023/04/14 12:45:15;;;;;;;4.28;1.30;;;;;;;;;;5071779;28;20021;-80
2023/04/14 12:47:51;;;;;;;3.15;0.90;;;;;;;;;;5071645;28;20036;-80
2023/04/14 12:50:31;;;;;;;3.92;1.30;;;;;;;;;;5031538;28;20053;-79
2023/04/14 12:52:58;;;;;;;4.70;1.17;;;;;;;;;;5015043;28;20067;-79
2023/04/14 12:55:30;;;;;;;4.25;1.13;;;;;;;;;;5015062;28;20145;-80
2023/04/14 12:57:57;;;;;;;5.18;1.35;;;;;;;;;;5031289;28;21093;-79
2023/04/14 13:00:25;;;;;;;5.55;1.25;;;;;;;;;;5013911;28;20033;-79
2023/04/14 13:02:51;;;;;;;3.08;0.80;;;;;;;;;;5031054;28;20061;-79
2023/04/14 13:05:17;;;;;;;4.10;1.17;;;;;;;;;;5019979;28;20093;-78
2023/04/14 13:07:43;;;;;;;4.40;1.05;;;;;;;;;;5019425;28;20038;-80
2023/04/14 13:10:10;;;;;;;4.97;1.10;;;;;;;;;;5017755;28;20113;-79
2023/04/14 13:12:36;;;;;;;6.68;1.67;;;;;;;;;;5031706;28;20240;-78
2023/04/14 13:15:03;;;;;;;5.70;1.48;;;;;;;;;;5031961;28;20086;-79
2023/04/14 13:17:29;;;;;;;6.28;1.00;;;;;;;;;;5031851;28;20029;-80
2023/04/14 13:19:55;;;;;;;3.92;1.17;;;;;;;;;;5030496;28;20110;-79
2023/04/14 13:22:21;;;;;;;2.33;0.93;;;;;;;;;;5071178;28;20121;-79
2023/04/14 13:24:48;;;;;;;8.60;1.35;;;;;;;;;;5073258;28;20088;-78
2023/04/14 13:27:18;;;;;;;3.53;1.25;;;;;;;;;;5074383;28;20064;-80
2023/04/14 13:29:44;;;;;;;2.60;0.95;;;;;;;;;;5071198;28;20029;-77
2023/04/14 13:32:10;;;;;;;5.72;1.48;;;;;;;;;;5074587;28;20032;-79
2023/04/14 13:34:40;;;;;;;4.95;1.25;;;;;;;;;;5072479;28;20028;-78
2023/04/14 13:37:06;;;;;;;6.43;1.48;;;;;;;;;;5078463;28;20012;-78
2023/04/14 13:39:32;;;;;;;5.47;1.45;;;;;;;;;;5078854;28;20042;-78
2023/04/14 13:41:58;;;;;;;3.88;1.10;;;;;;;;;;5073494;28;20040;-76
2023/04/14 13:44:24;;;;;;;3.65;1.13;;;;;;;;;;5074496;28;20032;-78
2023/04/14 13:46:51;;;;;;;5.68;1.00;;;;;;;;;;5072827;28;20034;-79
2023/04/14 13:49:17;;;;;;;5.55;1.42;;;;;;;;;;5071567;28;20052;-79
2023/04/14 13:51:43;;;;;;;4.72;1.27;;;;;;;;;;5075510;28;20045;-76
2023/04/14 13:54:09;;;;;;;4.93;1.23;;;;;;;;;;5070880;28;20461;-77
2023/04/14 13:56:35;;;;;;;4.00;1.33;;;;;;;;;;5067082;28;20021;-78
2023/04/14 13:59:01;;;;;;;3.35;1.15;;;;;;;;;;5075465;28;20024;-76
2023/04/14 14:01:27;;;;;;;2.42;0.68;;;;;;;;;;5073415;28;20029;-79
2023/04/14 14:03:53;;;;;;;2.45;0.63;;;;;;;;;;5071813;28;20100;-78
2023/04/14 14:06:19;;;;;;;7.07;1.27;;;;;;;;;;5065945;28;20024;-76
2023/04/14 14:08:45;;;;;;;4.53;1.17;;;;;;;;;;5071629;28;20029;-79
2023/04/14 14:11:11;;;;;;;3.13;1.05;;;;;;;;;;5066680;28;20085;-78
2023/04/14 14:13:38;;;;;;;2.35;0.80;;;;;;;;;;5070293;28;20025;-78
2023/04/14 14:16:08;;;;;;;3.47;1.08;;;;;;;;;;5071738;28;20112;-78
2023/04/14 14:18:37;;;;;;;4.18;0.93;;;;;;;;;;5074700;28;20035;-79
2023/04/14 14:21:03;;;;;;;3.25;0.90;;;;;;;;;;5071227;28;20013;-78
2023/04/14 14:23:30;;;;;;;3.45;1.42;;;;;;;;;;5070422;28;20059;-78
2023/04/14 14:25:56;;;;;;;5.45;1.00;;;;;;;;;;5074771;28;20013;-79
2023/04/14 14:28:22;;;;;;;2.13;0.80;;;;;;;;;;5073684;28;20092;-77
2023/04/14 14:30:48;;;;;;;2.20;0.90;;;;;;;;;;5072095;28;20036;-78
2023/04/14 14:33:14;;;;;;;4.53;1.10;;;;;;;;;;5068276;28;20037;-76
2023/04/14 14:35:40;;;;;;;6.47;0.90;;;;;;;;;;5068708;28;20032;-78
2023/04/14 14:38:06;;;;;;;3.42;1.15;;;;;;;;;;5070388;28;20044;-77
2023/04/14 14:40:32;;;;;;;3.95;0.90;;;;;;;;;;5070963;28;20021;-78
2023/04/14 14:42:58;;;;;;;4.20;1.00;;;;;;;;;;5071337;28;20033;-78